createdAt,value
2022-10-12T00:01:43.175Z,5.90
2022-10-12T00:04:12.461Z,5.53
2022-10-12T00:06:41.373Z,6.17
2022-10-12T00:09:11.780Z,5.80
2022-10-12T00:11:41.399Z,5.03
2022-10-12T00:14:10.066Z,5.13
2022-10-12T00:16:40.569Z,5.13
2022-10-12T00:19:09.432Z,4.60
2022-10-12T00:21:40.330Z,4.30
2022-10-12T00:24:12.984Z,5.13
2022-10-12T00:26:42.005Z,4.93
2022-10-12T00:29:11.386Z,5.13
2022-10-12T00:31:40.097Z,5.13
2022-10-12T00:34:09.731Z,4.93
2022-10-12T00:36:38.398Z,4.67
2022-10-12T00:39:09.113Z,4.47
2022-10-12T00:41:41.659Z,5.13
2022-10-12T00:44:47.652Z,5.27
2022-10-12T00:47:25.999Z,5.00
2022-10-12T00:50:00.067Z,4.90
2022-10-12T00:52:37.313Z,4.80
2022-10-12T00:55:07.921Z,5.87
2022-10-12T00:57:42.119Z,4.87
2022-10-12T01:00:14.454Z,4.83
2022-10-12T01:02:45.130Z,5.40
2022-10-12T01:05:15.103Z,5.57
2022-10-12T01:07:44.062Z,5.80
2022-10-12T01:10:13.284Z,5.43
2022-10-12T01:12:45.657Z,5.07
2022-10-12T01:15:15.538Z,5.13
2022-10-12T01:17:55.422Z,4.40
2022-10-12T01:20:49.241Z,4.70
2022-10-12T01:24:01.887Z,3.83
2022-10-12T01:26:58.065Z,4.07
2022-10-12T01:29:51.383Z,5.00
2022-10-12T01:32:26.833Z,4.40
2022-10-12T01:35:00.700Z,4.93
2022-10-12T01:37:41.179Z,5.37
2022-10-12T01:40:13.790Z,5.27
2022-10-12T01:42:44.792Z,5.00
2022-10-12T01:45:17.282Z,4.80
2022-10-12T01:47:49.835Z,4.90
2022-10-12T01:50:19.086Z,5.37
2022-10-12T01:52:58.455Z,4.83
2022-10-12T01:55:40.205Z,5.03
2022-10-12T01:58:21.749Z,4.27
2022-10-12T02:00:57.382Z,5.27
2022-10-12T02:03:39.009Z,5.23
2022-10-12T02:06:11.172Z,5.13
2022-10-12T02:08:48.758Z,5.10
2022-10-12T02:11:20.481Z,5.10
2022-10-12T02:13:52.829Z,5.30
2022-10-12T02:16:27.198Z,4.70
2022-10-12T02:18:59.191Z,4.80
2022-10-12T02:21:31.497Z,4.53
2022-10-12T02:24:02.470Z,4.60
2022-10-12T02:26:36.131Z,4.33
2022-10-12T02:29:07.991Z,4.37
2022-10-12T02:31:43.299Z,4.93
2022-10-12T02:34:17.554Z,4.50
2022-10-12T02:36:52.142Z,4.47
2022-10-12T02:39:25.259Z,4.37
2022-10-12T02:41:59.653Z,4.73
2022-10-12T02:44:33.195Z,4.73
2022-10-12T02:47:04.562Z,5.13
2022-10-12T02:49:37.146Z,4.87
2022-10-12T02:52:07.912Z,5.17
2022-10-12T02:54:37.286Z,5.40
2022-10-12T02:57:05.802Z,5.00
2022-10-12T02:59:34.894Z,5.50
2022-10-12T03:02:03.894Z,5.13
2022-10-12T03:04:34.022Z,4.97
2022-10-12T03:07:02.710Z,4.53
2022-10-12T03:09:31.297Z,4.67
2022-10-12T03:12:01.473Z,5.50
2022-10-12T03:14:31.302Z,4.70
2022-10-12T03:17:00.285Z,4.70
2022-10-12T03:19:29.110Z,4.47
2022-10-12T03:21:59.469Z,5.07
2022-10-12T03:24:29.228Z,5.60
2022-10-12T03:26:58.075Z,5.57
2022-10-12T03:29:27.080Z,5.60
2022-10-12T03:31:56.123Z,5.13
2022-10-12T03:34:25.408Z,4.60
2022-10-12T03:36:54.496Z,5.13
2022-10-12T03:39:24.931Z,5.40
2022-10-12T03:41:54.025Z,5.73
2022-10-12T03:44:23.087Z,5.70
2022-10-12T03:46:52.376Z,5.80
2022-10-12T03:49:21.768Z,5.90
2022-10-12T03:51:50.852Z,6.17
2022-10-12T03:54:20.097Z,5.57
2022-10-12T03:56:50.834Z,5.50
2022-10-12T03:59:19.818Z,5.63
2022-10-12T04:01:48.989Z,5.80
2022-10-12T04:04:18.064Z,5.50
2022-10-12T04:06:47.297Z,6.00
2022-10-12T04:09:16.335Z,5.33
2022-10-12T04:11:45.375Z,6.43
2022-10-12T04:14:16.254Z,5.80
2022-10-12T04:16:45.353Z,6.57
2022-10-12T04:19:15.180Z,7.33
2022-10-12T04:21:44.675Z,6.17
2022-10-12T04:24:13.994Z,7.17
2022-10-12T04:26:43.390Z,6.97
2022-10-12T04:29:15.651Z,6.60
2022-10-12T04:31:47.219Z,6.73
2022-10-12T04:34:16.806Z,6.87
2022-10-12T04:36:46.103Z,6.73
2022-10-12T04:39:15.511Z,7.87
2022-10-12T04:41:45.636Z,6.50
2022-10-12T04:44:16.401Z,8.67
2022-10-12T04:46:45.713Z,8.80
2022-10-12T04:49:14.972Z,7.87
2022-10-12T04:51:44.062Z,8.93
2022-10-12T04:54:13.380Z,8.23
2022-10-12T04:56:47.490Z,7.90
2022-10-12T04:59:18.751Z,6.73
2022-10-12T05:01:47.868Z,7.33
2022-10-12T05:04:17.534Z,7.37
2022-10-12T05:06:46.952Z,6.97
2022-10-12T05:09:17.237Z,7.03
2022-10-12T05:11:46.786Z,7.00
2022-10-12T05:14:15.839Z,7.10
2022-10-12T05:16:46.594Z,6.80
2022-10-12T05:19:16.212Z,7.40
2022-10-12T05:21:45.887Z,7.33
2022-10-12T05:24:15.107Z,7.67
2022-10-12T05:26:44.355Z,7.67
2022-10-12T05:29:13.880Z,6.80
2022-10-12T05:31:43.349Z,7.40
2022-10-12T05:34:13.970Z,7.63
2022-10-12T05:36:43.219Z,7.20
2022-10-12T05:39:12.338Z,7.40
2022-10-12T05:41:41.407Z,7.43
2022-10-12T05:44:11.030Z,8.00
2022-10-12T05:46:40.152Z,6.77
2022-10-12T05:49:09.846Z,7.17
2022-10-12T05:51:40.920Z,7.43
2022-10-12T05:54:10.745Z,7.20
2022-10-12T05:56:40.606Z,7.87
2022-10-12T05:59:10.063Z,7.03
2022-10-12T07:24:46.150Z,10.87
2022-10-12T07:27:21.618Z,11.10
2022-10-12T07:29:50.364Z,9.47
2022-10-12T07:32:20.074Z,11.10
2022-10-12T07:34:48.945Z,11.50
2022-10-12T07:37:17.908Z,11.17
2022-10-12T07:39:49.334Z,11.93
2022-10-12T07:42:25.625Z,11.80
2022-10-12T07:44:55.335Z,12.00
2022-10-12T07:47:25.840Z,15.33
2022-10-12T07:49:55.700Z,12.77
2022-10-12T07:52:29.237Z,13.80
2022-10-12T07:55:00.859Z,11.33
2022-10-12T07:57:31.391Z,14.43
2022-10-12T08:00:00.298Z,13.00
2022-10-12T08:02:29.528Z,12.60
2022-10-12T08:04:58.189Z,12.40
2022-10-12T08:07:27.134Z,11.53
2022-10-12T08:09:55.906Z,10.40
2022-10-12T08:12:27.209Z,10.60
2022-10-12T08:14:56.221Z,10.60
2022-10-12T08:17:26.192Z,10.77
2022-10-12T08:19:55.846Z,11.20
2022-10-12T08:22:25.598Z,10.53
2022-10-12T08:24:54.230Z,10.87
2022-10-12T08:27:23.597Z,10.37
2022-10-12T08:29:56.592Z,10.47
2022-10-12T08:32:25.910Z,11.50
2022-10-12T08:34:55.292Z,10.70
2022-10-12T08:37:23.969Z,10.23
2022-10-12T08:39:53.541Z,11.17
2022-10-12T08:42:37.430Z,11.13
2022-10-12T08:45:31.868Z,11.37
2022-10-12T08:48:06.834Z,10.33
2022-10-12T08:50:39.668Z,11.07
2022-10-12T08:53:26.994Z,10.40
2022-10-12T08:55:57.898Z,10.97
2022-10-12T08:58:33.834Z,11.03
2022-10-12T09:01:22.174Z,11.00
2022-10-12T09:04:03.415Z,11.33
2022-10-12T09:06:41.287Z,10.20
2022-10-12T09:09:26.266Z,10.67
2022-10-12T09:12:11.793Z,11.80
2022-10-12T09:14:43.344Z,9.93
2022-10-12T09:17:26.875Z,9.77
2022-10-12T09:20:03.150Z,9.93
2022-10-12T09:22:32.686Z,9.67
2022-10-12T09:25:04.546Z,9.90
2022-10-12T09:27:33.838Z,8.97
2022-10-12T09:30:06.495Z,9.50
2022-10-12T09:32:56.357Z,9.00
2022-10-12T09:35:25.676Z,9.77
2022-10-12T09:37:55.824Z,8.27
2022-10-12T09:40:30.327Z,8.57
2022-10-12T09:43:05.615Z,8.47
2022-10-12T09:45:37.988Z,7.70
2022-10-12T09:48:22.370Z,7.60
2022-10-12T09:50:53.668Z,7.67
2022-10-12T09:53:32.937Z,7.63
2022-10-12T09:56:13.279Z,6.20
2022-10-12T09:58:54.308Z,6.30
2022-10-12T10:01:25.909Z,4.77
2022-10-12T10:04:27.651Z,3.73
2022-10-12T10:06:56.447Z,3.33
2022-10-12T10:09:33.887Z,3.57
2022-10-12T10:12:15.113Z,3.50
2022-10-12T10:14:47.058Z,3.20
2022-10-12T10:17:17.560Z,3.63
2022-10-12T10:19:52.824Z,3.27
2022-10-12T10:22:23.231Z,2.87
2022-10-12T10:24:59.007Z,3.20
2022-10-12T10:27:32.755Z,3.10
2022-10-12T10:30:29.742Z,3.10
2022-10-12T10:33:14.111Z,3.57
2022-10-12T10:36:02.187Z,3.80
2022-10-12T10:38:34.571Z,3.50
2022-10-12T10:41:07.902Z,4.17
2022-10-12T10:43:37.877Z,3.17
2022-10-12T10:46:07.293Z,1.93
2022-10-12T10:48:53.671Z,2.27
2022-10-12T10:51:24.253Z,2.47
2022-10-12T10:53:55.904Z,2.50
2022-10-12T10:56:28.267Z,2.23
2022-10-12T10:59:10.063Z,2.00
2022-10-12T11:01:53.074Z,2.77
2022-10-12T11:04:28.350Z,2.17
2022-10-12T11:07:20.746Z,2.30
2022-10-12T11:09:59.047Z,2.73
2022-10-12T11:12:32.443Z,2.57
2022-10-12T11:15:14.679Z,2.73
2022-10-12T11:17:49.458Z,2.30
2022-10-12T11:20:35.822Z,2.53
2022-10-12T11:23:17.289Z,4.93
2022-10-12T11:25:56.723Z,2.30
2022-10-12T11:28:32.520Z,2.33
2022-10-12T11:31:03.388Z,2.23
2022-10-12T11:33:38.645Z,2.27
2022-10-12T11:36:11.621Z,2.40
2022-10-12T11:38:46.299Z,2.37
2022-10-12T11:41:34.887Z,2.57
2022-10-12T11:44:09.332Z,2.57
2022-10-12T11:46:43.073Z,2.10
2022-10-12T11:49:19.920Z,2.70
2022-10-12T11:51:53.532Z,3.23
2022-10-12T11:54:38.090Z,2.00
2022-10-12T11:57:13.681Z,2.20
2022-10-12T11:59:46.038Z,2.10
2022-10-12T12:02:23.877Z,2.00
2022-10-12T12:04:54.069Z,2.30
2022-10-12T12:07:43.860Z,2.70
2022-10-12T12:10:54.319Z,2.90
2022-10-12T12:13:28.970Z,2.60
2022-10-12T12:16:28.556Z,2.43
2022-10-12T12:19:33.273Z,2.70
2022-10-12T12:22:25.067Z,3.00
2022-10-12T12:25:14.384Z,2.40
2022-10-12T12:27:58.477Z,2.33
2022-10-12T12:30:39.540Z,3.00
2022-10-12T12:33:30.669Z,2.57
2022-10-12T12:36:02.185Z,2.60
2022-10-12T12:38:34.172Z,2.30
2022-10-12T12:41:16.410Z,2.33
2022-10-12T12:44:07.254Z,2.70
2022-10-12T12:47:43.881Z,2.37
2022-10-12T12:50:36.194Z,3.10
2022-10-12T12:53:12.838Z,2.80
2022-10-12T12:56:00.574Z,2.60
2022-10-12T12:58:50.854Z,2.60
2022-10-12T13:01:55.390Z,2.87
2022-10-12T13:04:42.831Z,5.73
2022-10-12T13:07:58.169Z,5.77
2022-10-12T13:10:40.473Z,2.90
2022-10-12T13:13:39.490Z,2.60
2022-10-12T13:17:09.470Z,2.57
2022-10-12T13:19:22.182Z,2.37
2022-10-12T13:21:54.089Z,2.90
2022-10-12T13:24:28.272Z,3.93
2022-10-12T13:27:01.174Z,3.87
2022-10-12T13:29:38.163Z,4.10
2022-10-12T13:32:12.920Z,3.43
2022-10-12T13:34:48.047Z,2.90
2022-10-12T13:37:21.244Z,2.57
2022-10-12T13:39:53.020Z,2.33
2022-10-12T13:42:29.941Z,2.00
2022-10-12T13:44:59.942Z,2.03
2022-10-12T13:47:33.554Z,1.93
2022-10-12T13:50:19.769Z,2.23
2022-10-12T13:52:55.936Z,2.37
2022-10-12T13:55:31.465Z,2.50
2022-10-12T13:58:00.266Z,3.70
2022-10-12T14:00:31.129Z,2.30
2022-10-12T14:03:03.323Z,3.83
2022-10-12T14:05:35.575Z,2.33
2022-10-12T14:08:12.932Z,2.70
2022-10-12T14:10:42.747Z,2.77
2022-10-12T14:13:17.018Z,2.73
2022-10-12T14:15:46.104Z,2.87
2022-10-12T14:18:38.028Z,2.23
2022-10-12T14:21:18.029Z,2.60
2022-10-12T14:23:49.547Z,2.33
2022-10-12T14:26:30.172Z,2.40
2022-10-12T14:29:02.619Z,2.97
2022-10-12T14:31:53.315Z,2.43
2022-10-12T14:34:44.917Z,3.20
2022-10-12T14:37:29.164Z,2.90
2022-10-12T14:40:03.090Z,2.50
2022-10-12T14:42:35.119Z,2.63
2022-10-12T14:45:06.999Z,2.70
2022-10-12T14:47:39.903Z,2.97
2022-10-12T14:50:11.685Z,5.23
2022-10-12T14:52:46.238Z,7.33
2022-10-12T14:55:18.474Z,4.43
2022-10-12T14:57:48.836Z,3.53
2022-10-12T15:00:21.440Z,5.60
2022-10-12T15:02:53.197Z,3.43
2022-10-12T15:05:27.279Z,3.50
2022-10-12T15:07:58.294Z,3.67
2022-10-12T15:10:28.847Z,5.03
2022-10-12T15:12:58.160Z,3.50
2022-10-12T15:15:33.873Z,5.23
2022-10-12T15:18:03.304Z,5.40
2022-10-12T15:20:33.783Z,5.07
2022-10-12T15:23:04.460Z,4.17
2022-10-12T15:25:46.437Z,5.93
2022-10-12T15:28:15.308Z,5.67
2022-10-12T15:31:11.636Z,3.17
2022-10-12T15:33:33.071Z,3.30
2022-10-12T15:36:02.056Z,2.97
2022-10-12T15:38:36.832Z,3.77
2022-10-12T15:41:06.229Z,3.70
2022-10-12T15:43:38.096Z,3.30
2022-10-12T15:46:12.923Z,3.23
2022-10-12T15:48:44.145Z,4.20
2022-10-12T15:51:19.375Z,3.13
2022-10-12T15:53:50.345Z,3.50
2022-10-12T15:56:20.121Z,3.73
2022-10-12T15:58:49.245Z,3.63
2022-10-12T16:01:21.799Z,3.43
2022-10-12T16:03:51.562Z,3.77
2022-10-12T16:06:20.285Z,3.80
2022-10-12T16:08:51.291Z,4.50
2022-10-12T16:11:23.162Z,5.30
2022-10-12T16:13:56.905Z,5.67
2022-10-12T16:16:27.627Z,5.03
2022-10-12T16:18:58.781Z,4.70
2022-10-12T16:21:27.641Z,4.50
2022-10-12T16:23:57.911Z,4.40
2022-10-12T16:26:27.876Z,3.93
2022-10-12T16:28:57.346Z,4.00
2022-10-12T16:31:26.375Z,4.50
2022-10-12T16:33:55.311Z,4.23
2022-10-12T16:36:24.286Z,4.70
2022-10-12T16:38:53.450Z,5.23
2022-10-12T16:41:29.172Z,4.97
2022-10-12T16:44:00.744Z,4.83
2022-10-12T16:46:30.764Z,4.83
2022-10-12T16:48:59.605Z,6.07
2022-10-12T16:51:29.337Z,6.03
2022-10-12T16:53:59.885Z,6.03
2022-10-12T16:56:30.226Z,6.20
2022-10-12T16:59:00.538Z,8.00
2022-10-12T17:01:32.363Z,8.10
2022-10-12T17:04:04.235Z,8.73
2022-10-12T17:06:35.361Z,9.07
2022-10-12T17:09:04.688Z,9.67
2022-10-12T17:11:37.686Z,9.00
2022-10-12T17:14:11.513Z,8.57
2022-10-12T17:16:52.720Z,8.10
2022-10-12T17:19:28.120Z,8.43
2022-10-12T17:21:59.601Z,8.40
2022-10-12T17:24:33.424Z,7.90
2022-10-12T17:27:05.220Z,7.83
2022-10-12T17:29:36.645Z,8.33
2022-10-12T17:32:06.549Z,8.00
2022-10-12T17:34:38.227Z,7.50
2022-10-12T17:37:08.006Z,7.83
2022-10-12T17:39:41.147Z,7.20
2022-10-12T17:42:13.970Z,7.10
2022-10-12T17:44:43.383Z,5.90
2022-10-12T17:47:12.932Z,5.70
2022-10-12T17:49:41.997Z,4.80
2022-10-12T17:52:11.220Z,4.67
2022-10-12T17:54:40.175Z,5.50
2022-10-12T17:57:11.860Z,5.07
2022-10-12T17:59:41.073Z,5.53
2022-10-12T18:02:14.175Z,5.40
2022-10-12T18:04:46.550Z,5.20
2022-10-12T18:07:16.586Z,5.27
2022-10-12T18:09:48.246Z,5.37
2022-10-12T18:12:20.723Z,6.03
2022-10-12T18:14:59.038Z,8.37
2022-10-12T18:17:28.747Z,8.07
2022-10-12T18:19:58.555Z,9.43
2022-10-12T18:22:27.576Z,9.83
2022-10-12T18:24:56.581Z,11.63
2022-10-12T18:27:30.084Z,13.87
2022-10-12T18:30:01.413Z,13.80
2022-10-12T18:32:31.876Z,12.43
2022-10-12T18:35:01.957Z,11.10
2022-10-12T18:37:31.586Z,10.70
2022-10-12T18:40:01.815Z,10.97
2022-10-12T18:42:32.320Z,12.30
2022-10-12T18:45:04.567Z,13.13
2022-10-12T18:47:33.763Z,14.50
2022-10-12T18:50:06.302Z,15.23
2022-10-12T18:52:36.180Z,12.13
2022-10-12T18:55:05.837Z,11.67
2022-10-12T18:57:40.103Z,9.40
2022-10-12T19:00:18.287Z,9.40
2022-10-12T19:02:47.726Z,9.30
2022-10-12T19:05:16.710Z,11.37
2022-10-12T19:07:48.725Z,11.47
2022-10-12T19:10:21.789Z,10.90
2022-10-12T19:12:52.307Z,11.17
2022-10-12T19:15:22.393Z,11.87
2022-10-12T19:17:53.824Z,14.53
2022-10-12T19:20:23.403Z,14.13
2022-10-12T19:22:52.732Z,15.80
2022-10-12T19:25:24.225Z,14.70
2022-10-12T19:28:00.757Z,12.97
2022-10-12T19:30:33.994Z,11.10
2022-10-12T19:33:03.741Z,11.27
2022-10-12T19:35:40.607Z,11.13
2022-10-12T19:38:12.911Z,10.90
2022-10-12T19:40:45.247Z,11.73
2022-10-12T19:43:15.767Z,11.40
2022-10-12T19:45:44.928Z,13.20
2022-10-12T19:48:15.316Z,13.80
2022-10-12T19:50:46.897Z,13.77
2022-10-12T19:53:16.061Z,12.43
2022-10-12T19:55:46.875Z,11.80
2022-10-12T19:58:18.032Z,11.77
2022-10-12T20:00:47.216Z,10.80
2022-10-12T20:03:19.291Z,9.53
2022-10-12T20:05:48.770Z,9.33
2022-10-12T20:08:18.299Z,8.90
2022-10-12T20:10:48.204Z,7.80
2022-10-12T20:13:22.414Z,6.50
2022-10-12T20:15:57.994Z,5.93
2022-10-12T20:18:32.608Z,6.53
2022-10-12T20:21:03.463Z,6.43
2022-10-12T20:23:39.759Z,5.93
2022-10-12T20:26:12.466Z,6.30
2022-10-12T20:28:49.242Z,6.30
2022-10-12T20:31:23.230Z,6.13
2022-10-12T20:33:53.861Z,6.57
2022-10-12T20:36:28.115Z,6.30
2022-10-12T20:38:58.547Z,6.60
2022-10-12T20:41:28.923Z,6.53
2022-10-12T20:44:01.182Z,6.57
2022-10-12T20:46:40.312Z,6.90
2022-10-12T20:49:12.865Z,6.60
2022-10-12T20:51:44.566Z,6.33
2022-10-12T20:54:18.987Z,7.23
2022-10-12T20:56:52.101Z,6.63
2022-10-12T20:59:22.703Z,7.50
2022-10-12T21:01:54.493Z,8.10
2022-10-12T21:04:23.338Z,7.43
2022-10-12T21:06:53.241Z,7.73
2022-10-12T21:09:22.682Z,7.73
2022-10-12T21:11:51.619Z,8.90
2022-10-12T21:14:22.025Z,8.17
2022-10-12T21:16:51.296Z,10.73
2022-10-12T21:19:22.712Z,11.00
2022-10-12T21:21:51.650Z,10.23
2022-10-12T21:24:20.864Z,10.63
2022-10-12T21:26:52.316Z,11.23
2022-10-12T21:29:23.418Z,10.37
2022-10-12T21:31:52.325Z,11.03
2022-10-12T21:34:21.240Z,9.83
2022-10-12T21:36:49.982Z,9.27
2022-10-12T21:39:20.395Z,8.93
2022-10-12T21:41:49.424Z,8.73
2022-10-12T21:44:19.042Z,9.67
2022-10-12T21:46:49.322Z,9.30
2022-10-12T21:49:18.189Z,9.80
2022-10-12T21:51:46.911Z,9.20
2022-10-12T21:54:15.880Z,9.27
2022-10-12T21:56:44.962Z,9.33
2022-10-12T21:59:15.058Z,8.87
2022-10-12T22:01:45.440Z,9.13
2022-10-12T22:04:17.225Z,10.27
2022-10-12T22:06:46.501Z,11.40
2022-10-12T22:09:19.481Z,11.40
2022-10-12T22:11:50.160Z,13.70
2022-10-12T22:14:20.268Z,14.10
2022-10-12T22:16:49.075Z,12.43
2022-10-12T22:19:21.793Z,12.33
2022-10-12T22:21:53.457Z,11.80
2022-10-12T22:24:22.591Z,11.97
2022-10-12T22:26:51.420Z,12.43
2022-10-12T22:29:21.105Z,13.43
2022-10-12T22:31:52.936Z,12.77
2022-10-12T22:34:23.498Z,12.37
2022-10-12T22:36:52.520Z,12.23
2022-10-12T22:39:21.322Z,13.20
2022-10-12T22:41:50.065Z,12.13
2022-10-12T22:44:19.000Z,11.53
2022-10-12T22:46:48.520Z,10.60
2022-10-12T22:49:19.584Z,10.00
2022-10-12T22:51:50.781Z,9.63
2022-10-12T22:54:19.856Z,9.30
2022-10-12T22:56:51.408Z,9.40
2022-10-12T22:59:20.339Z,8.40
2022-10-12T23:01:49.439Z,8.07
2022-10-12T23:04:18.147Z,7.97
2022-10-12T23:06:47.034Z,8.03
2022-10-12T23:09:17.062Z,8.23
2022-10-12T23:11:46.173Z,8.20
2022-10-12T23:14:14.781Z,7.90
2022-10-12T23:16:44.470Z,7.93
2022-10-12T23:19:13.043Z,8.17
2022-10-12T23:21:41.579Z,7.47
2022-10-12T23:24:13.947Z,7.97
2022-10-12T23:26:44.274Z,7.10
2022-10-12T23:29:15.713Z,7.50
2022-10-12T23:31:44.505Z,7.57
2022-10-12T23:34:14.784Z,7.50
2022-10-12T23:36:43.644Z,8.30
2022-10-12T23:39:12.575Z,7.50
2022-10-12T23:41:41.211Z,7.47
2022-10-12T23:44:11.309Z,7.87
2022-10-12T23:46:40.282Z,8.60
2022-10-12T23:49:08.775Z,8.27
2022-10-12T23:51:37.580Z,7.67
2022-10-12T23:54:06.420Z,8.60
2022-10-12T23:56:38.151Z,7.07
2022-10-12T23:59:10.264Z,7.80
